Time;durP1;ratioP1;P1;durP2;ratioP2;P2;SDS_P1;SDS_P2;PMS_P1;PMS_P2;Temp;Humidity;BMP_temperature;BMP_pressure;BME280_temperature;BME280_humidity;BME280_pressure;Samples;Min_cycle;Max_cycle;Signal;HPM_P1;HPM_P2
2021/09/07 00:01:39;;;;;;;18.35;2.25;;;;;;;16.89;45.76;102151.58;1739165;82;21526;-59
2021/09/07 00:09:33;;;;;;;14.90;3.15;;;;;;;16.73;48.91;102154.49;1719753;83;21165;-60
2021/09/07 00:11:59;;;;;;;18.00;3.12;;;;;;;16.55;50.00;102156.96;1709689;82;21113;-58
2021/09/07 00:20:11;;;;;;;17.00;3.10;;;;;;;16.14;51.39;102150.80;1720983;82;21537;-59
2021/09/07 00:33:46;;;;;;;11.38;2.95;;;;;;;15.86;53.12;102148.16;1748714;82;21008;-58
2021/09/07 00:36:14;;;;;;;14.28;3.40;;;;;;;15.68;53.43;102146.50;1728129;82;21391;-58
2021/09/07 00:38:41;;;;;;;10.32;4.50;;;;;;;15.57;53.85;102145.52;1750133;82;21422;-58
2021/09/07 00:41:07;;;;;;;14.18;2.60;;;;;;;15.52;54.01;102139.84;1742214;82;21064;-58
2021/09/07 00:46:07;;;;;;;14.95;2.98;;;;;;;15.40;54.68;102146.08;1732017;82;21494;-58
2021/09/07 00:54:07;;;;;;;10.35;2.80;;;;;;;15.36;55.31;102143.04;1732483;82;21658;-58
2021/09/07 00:56:34;;;;;;;11.10;2.87;;;;;;;15.41;55.20;102144.25;1734511;82;21524;-60
2021/09/07 01:01:40;;;;;;;10.30;3.20;;;;;;;15.36;54.93;102143.04;1688646;83;22187;-59
2021/09/07 01:06:57;;;;;;;11.80;2.98;;;;;;;15.31;55.35;102149.97;1750099;82;21080;-60
2021/09/07 01:09:24;;;;;;;17.90;3.42;;;;;;;15.36;55.34;102144.39;1719889;82;21464;-60
2021/09/07 01:11:52;;;;;;;9.60;3.35;;;;;;;15.40;55.24;102146.08;1707101;82;20972;-58
2021/09/07 01:14:35;;;;;;;15.55;4.03;;;;;;;15.44;55.22;102143.69;1741118;82;21087;-58
2021/09/07 01:17:26;;;;;;;3.50;2.10;;;;;;;15.41;55.38;102146.95;1719674;83;21021;-54
2021/09/07 01:22:30;;;;;;;7.65;2.30;;;;;;;15.35;55.41;102153.44;1724142;82;21454;-56
2021/09/07 01:27:34;;;;;;;8.50;2.35;;;;;;;15.37;55.67;102143.48;1737476;80;21901;-56
2021/09/07 01:30:03;;;;;;;9.35;2.08;;;;;;;15.34;56.20;102146.27;1742907;81;21520;-55
2021/09/07 01:35:16;;;;;;;6.47;2.35;;;;;;;15.24;55.39;102142.11;1705346;84;21145;-55
2021/09/07 01:37:44;;;;;;;7.08;2.10;;;;;;;15.28;55.97;102137.02;1714390;82;21267;-54
2021/09/07 01:40:29;;;;;;;9.25;2.37;;;;;;;15.33;55.83;102141.80;1726495;82;22114;-55
2021/09/07 01:48:14;;;;;;;9.08;3.30;;;;;;;15.22;55.85;102144.84;1661965;86;21871;-56
2021/09/07 01:53:23;;;;;;;6.90;1.85;;;;;;;15.20;55.88;102138.61;1708634;83;21116;-54
2021/09/07 01:55:51;;;;;;;9.35;2.17;;;;;;;15.18;56.00;102141.38;1683014;83;21520;-56
2021/09/07 01:58:18;;;;;;;11.38;2.45;;;;;;;15.18;56.44;102138.69;1661036;85;21559;-55
2021/09/07 02:00:46;;;;;;;9.30;2.35;;;;;;;15.12;57.11;102141.55;1667811;85;21047;-58
2021/09/07 02:03:13;;;;;;;4.05;2.22;;;;;;;15.06;57.38;102144.46;1665256;84;21555;-55
2021/09/07 02:05:42;;;;;;;7.00;3.02;;;;;;;15.01;57.24;102138.33;1659109;85;21113;-55
2021/09/07 02:08:11;;;;;;;9.75;2.90;;;;;;;15.03;57.09;102144.56;1658275;85;21116;-55
2021/09/07 02:10:50;;;;;;;6.87;2.27;;;;;;;15.07;57.39;102143.53;1670621;85;21467;-55
2021/09/07 02:13:17;;;;;;;6.05;2.05;;;;;;;15.07;57.43;102145.36;1682931;83;21004;-56
2021/09/07 02:16:00;;;;;;;6.55;2.20;;;;;;;14.96;57.94;102158.72;1663641;85;21007;-56
2021/09/07 02:18:30;;;;;;;8.65;2.92;;;;;;;14.92;58.62;102154.80;1676391;85;21141;-54
2021/09/07 02:31:26;;;;;;;14.25;2.33;;;;;;;14.81;59.79;102153.33;1689732;83;21111;-55
2021/09/07 02:33:53;;;;;;;9.73;2.90;;;;;;;14.81;59.81;102147.93;1689560;84;21111;-55
2021/09/07 02:36:28;;;;;;;6.22;2.02;;;;;;;14.81;59.93;102150.63;1696334;84;21551;-55
2021/09/07 02:38:56;;;;;;;13.72;4.03;;;;;;;14.83;59.80;102150.11;1697982;84;20997;-55
2021/09/07 02:41:24;;;;;;;15.13;4.47;;;;;;;14.84;60.00;102150.53;1731161;82;21026;-56
2021/09/07 02:44:00;;;;;;;14.90;3.62;;;;;;;14.77;60.33;102158.41;1717461;82;21131;-55
2021/09/07 02:49:12;;;;;;;16.12;6.72;;;;;;;14.75;61.24;102158.92;1710670;82;21042;-55
2021/09/07 02:51:43;;;;;;;18.02;4.78;;;;;;;14.75;61.56;102152.17;1725174;82;21002;-55
2021/09/07 02:54:12;;;;;;;22.20;3.70;;;;;;;14.73;61.90;102158.09;1717780;82;21058;-56
2021/09/07 02:56:48;;;;;;;11.68;3.42;;;;;;;14.64;62.40;102167.77;1722872;82;21879;-56
2021/09/07 02:59:16;;;;;;;10.72;3.42;;;;;;;14.51;62.70;102165.89;1721841;82;21986;-56
2021/09/07 03:02:08;;;;;;;16.37;3.65;;;;;;;14.45;63.39;102158.84;1736447;81;21100;-55
2021/09/07 03:04:36;;;;;;;12.98;3.10;;;;;;;14.48;63.29;102160.14;1737369;82;21054;-55
2021/09/07 03:07:10;;;;;;;13.45;2.95;;;;;;;14.44;63.85;102160.67;1737305;82;21443;-55
2021/09/07 03:12:35;;;;;;;10.58;3.33;;;;;;;14.40;64.47;102166.20;1731877;82;21022;-55
2021/09/07 03:20:18;;;;;;;17.07;6.15;;;;;;;14.27;65.17;102165.66;1712525;82;21034;-55
2021/09/07 03:22:45;;;;;;;22.27;5.12;;;;;;;14.31;65.10;102170.94;1727762;82;21508;-55
2021/09/07 03:25:13;;;;;;;21.70;5.55;;;;;;;14.28;65.16;102173.73;1728800;82;21031;-55
2021/09/07 03:27:50;;;;;;;16.75;4.58;;;;;;;14.29;65.15;102180.89;1737684;82;21471;-55
2021/09/07 03:38:03;;;;;;;15.25;3.72;;;;;;;14.27;64.45;102188.14;1733925;82;21025;-58
2021/09/07 03:43:20;;;;;;;21.40;6.60;;;;;;;14.30;64.39;102188.05;1708585;82;21093;-58
2021/09/07 03:48:31;;;;;;;15.98;5.05;;;;;;;14.42;64.35;102183.22;1721392;81;21464;-59
2021/09/07 03:50:58;;;;;;;13.78;3.87;;;;;;;14.59;63.85;102188.16;1730050;82;21098;-59
2021/09/07 03:53:28;;;;;;;23.55;5.05;;;;;;;14.63;63.98;102192.98;1729860;82;21814;-56
2021/09/07 03:55:54;;;;;;;11.00;3.83;;;;;;;14.61;64.03;102197.97;1718519;82;21062;-56
2021/09/07 03:58:20;;;;;;;17.02;3.72;;;;;;;14.63;64.12;102192.98;1705096;84;21144;-56
2021/09/07 04:00:47;;;;;;;20.27;3.42;;;;;;;14.64;64.36;102201.50;1713425;82;21624;-56
2021/09/07 04:05:48;;;;;;;15.13;3.05;;;;;;;14.87;64.13;102208.48;1742011;82;20997;-56
2021/09/07 04:08:15;;;;;;;14.45;3.55;;;;;;;14.95;63.76;102203.34;1741947;82;21095;-59
2021/09/07 04:10:42;;;;;;;28.38;5.65;;;;;;;14.98;63.71;102203.25;1735565;82;21088;-56
2021/09/07 04:13:11;;;;;;;20.60;3.33;;;;;;;15.09;63.54;102208.33;1725553;82;21087;-59
2021/09/07 04:15:40;;;;;;;28.17;4.17;;;;;;;15.17;62.67;102209.86;1742103;82;21376;-59
2021/09/07 04:18:08;;;;;;;28.40;5.15;;;;;;;15.24;62.35;102210.52;1739158;80;21028;-56
2021/09/07 04:26:10;;;;;;;24.85;3.08;;;;;;;15.76;61.01;102210.65;1718505;82;22357;-59
2021/09/07 04:28:39;;;;;;;26.27;3.98;;;;;;;15.85;57.24;102219.41;1719540;82;21080;-58
2021/09/07 04:36:37;;;;;;;7.12;2.30;;;;;;;16.38;53.93;102221.66;1743243;82;21132;-56
2021/09/07 04:39:04;;;;;;;6.40;2.00;;;;;;;16.58;53.23;102221.82;1714743;82;21132;-59
2021/09/07 04:41:31;;;;;;;17.92;2.90;;;;;;;16.78;52.43;102224.25;1743103;82;21025;-59
2021/09/07 04:44:00;;;;;;;31.82;3.55;;;;;;;16.88;51.96;102225.66;1749837;82;21051;-59
2021/09/07 04:46:29;;;;;;;10.32;2.27;;;;;;;16.99;51.57;102228.48;1746922;82;21130;-58
2021/09/07 04:48:56;;;;;;;8.88;2.45;;;;;;;17.12;51.34;102228.39;1729696;82;21077;-58
2021/09/07 04:54:23;;;;;;;15.15;2.20;;;;;;;17.46;51.69;102237.91;1720190;82;21116;-58
2021/09/07 04:59:43;;;;;;;12.80;2.25;;;;;;;17.73;50.04;102239.55;1745988;82;21095;-56
2021/09/07 05:07:49;;;;;;;3.42;2.02;;;;;;;18.11;48.70;102249.76;1722584;82;21070;-56
2021/09/07 05:10:16;;;;;;;6.95;2.20;;;;;;;18.17;48.59;102235.45;1740327;82;21012;-56
2021/09/07 05:12:58;;;;;;;10.00;2.65;;;;;;;18.22;47.82;102242.02;1749633;82;21091;-56
2021/09/07 05:18:45;;;;;;;7.20;2.00;;;;;;;18.27;47.30;102240.01;1739506;82;21116;-56
2021/09/07 05:23:51;;;;;;;5.50;1.87;;;;;;;18.43;46.44;102244.73;1725697;82;22185;-57
2021/09/07 05:26:27;;;;;;;7.15;2.55;;;;;;;18.56;46.17;102251.39;1719969;82;21457;-56
2021/09/07 05:28:54;;;;;;;7.95;2.08;;;;;;;18.70;45.82;102260.77;1714943;83;21108;-57
2021/09/07 05:39:15;;;;;;;8.43;3.08;;;;;;;18.89;45.53;102275.73;1724518;82;21421;-56
2021/09/07 05:44:46;;;;;;;11.85;3.17;;;;;;;18.98;46.00;102270.36;1737212;82;21875;-56
2021/09/07 05:55:05;;;;;;;6.45;3.00;;;;;;;19.21;44.43;102272.50;1724256;81;21020;-56
2021/09/07 05:57:33;;;;;;;9.30;2.75;;;;;;;19.30;44.77;102282.92;1741872;80;21561;-56
2021/09/07 06:05:20;;;;;;;5.53;2.60;;;;;;;20.06;44.69;102277.02;1736013;81;21592;-56
2021/09/07 06:08:05;;;;;;;5.90;2.70;;;;;;;20.73;43.05;102290.78;1736540;80;21653;-57
2021/09/07 06:10:32;;;;;;;2.77;2.10;;;;;;;21.47;42.46;102279.90;1746888;82;21142;-55
2021/09/07 06:13:00;;;;;;;3.87;2.02;;;;;;;22.22;40.54;102276.98;1743542;81;21499;-57
2021/09/07 06:15:31;;;;;;;3.83;1.77;;;;;;;22.66;39.00;102290.73;1739878;81;21033;-56
2021/09/07 06:17:59;;;;;;;3.87;1.57;;;;;;;22.96;38.30;102281.60;1724493;82;21120;-56
2021/09/07 06:20:26;;;;;;;3.72;1.87;;;;;;;23.31;37.13;102283.94;1734519;82;21484;-59
2021/09/07 06:22:57;;;;;;;5.40;1.95;;;;;;;23.39;36.63;102289.80;1728849;82;21131;-56
2021/09/07 06:25:24;;;;;;;6.40;2.10;;;;;;;23.11;35.98;102298.41;1740084;82;21477;-56
2021/09/07 06:27:51;;;;;;;14.15;1.90;;;;;;;22.60;36.68;102292.89;1738757;80;21457;-60
2021/09/07 06:30:20;;;;;;;2.70;2.00;;;;;;;22.18;36.95;102313.62;1739107;81;21362;-59
2021/09/07 06:35:25;;;;;;;3.12;1.70;;;;;;;21.40;38.15;102315.33;1705860;83;21824;-58
2021/09/07 06:37:53;;;;;;;5.60;2.00;;;;;;;21.07;38.72;102316.22;1711906;83;21094;-59
2021/09/07 06:40:27;;;;;;;3.25;1.60;;;;;;;20.67;40.31;102304.72;1711142;83;21098;-59
2021/09/07 06:42:55;;;;;;;5.28;1.90;;;;;;;20.45;40.70;102312.69;1697336;83;21060;-60
2021/09/07 06:45:22;;;;;;;4.45;2.08;;;;;;;20.32;41.27;102315.14;1707784;83;21083;-64
2021/09/07 06:47:56;;;;;;;4.42;1.90;;;;;;;20.24;41.60;102307.86;1697624;83;21147;-60
2021/09/07 06:50:25;;;;;;;14.30;2.00;;;;;;;20.20;41.75;102319.38;1710156;82;21075;-59
2021/09/07 06:52:52;;;;;;;12.53;2.42;;;;;;;20.10;40.36;102331.21;1702941;83;21079;-61
2021/09/07 06:55:21;;;;;;;23.32;3.35;;;;;;;19.98;40.29;102323.19;1702516;83;21148;-58
2021/09/07 06:57:48;;;;;;;8.23;2.50;;;;;;;19.94;41.10;102322.94;1700972;82;21521;-59
2021/09/07 07:00:17;;;;;;;13.55;2.92;;;;;;;19.87;42.54;102318.73;1698315;82;21731;-59
2021/09/07 07:02:44;;;;;;;12.47;4.25;;;;;;;19.83;43.18;102323.94;1706319;83;21136;-59
2021/09/07 07:05:11;;;;;;;5.97;2.35;;;;;;;19.80;42.83;102334.48;1706357;83;21071;-59
2021/09/07 07:07:44;;;;;;;5.67;2.30;;;;;;;19.74;42.26;102329.34;1680904;84;21057;-60
2021/09/07 07:12:40;;;;;;;6.20;2.83;;;;;;;19.73;42.22;102336.61;1659753;84;21281;-60
2021/09/07 07:15:08;;;;;;;8.65;3.05;;;;;;;19.67;42.41;102344.19;1706440;83;21105;-59
2021/09/07 07:17:36;;;;;;;6.00;2.80;;;;;;;19.59;42.36;102342.73;1706542;83;21044;-59
2021/09/07 07:20:04;;;;;;;5.67;2.55;;;;;;;19.53;41.81;102347.58;1709746;83;21031;-60
2021/09/07 07:22:32;;;;;;;5.05;2.98;;;;;;;19.45;40.99;102342.03;1702013;83;21439;-59
2021/09/07 07:25:00;;;;;;;7.95;3.45;;;;;;;19.37;40.98;102339.27;1701130;83;21139;-60
2021/09/07 07:27:27;;;;;;;11.83;3.67;;;;;;;19.30;41.61;102349.55;1708223;83;21138;-58
2021/09/07 07:29:55;;;;;;;8.78;3.17;;;;;;;19.32;42.89;102342.20;1713101;83;22361;-59
2021/09/07 07:32:40;;;;;;;8.58;3.37;;;;;;;19.31;42.99;102354.03;1708130;82;21063;-59
2021/09/07 07:35:21;;;;;;;8.70;2.87;;;;;;;19.25;42.45;102354.33;1729051;80;21024;-60
2021/09/07 07:37:48;;;;;;;4.87;2.47;;;;;;;19.15;41.55;102349.33;1730895;82;21130;-59
2021/09/07 07:40:15;;;;;;;11.22;3.25;;;;;;;19.10;41.10;102348.63;1722248;81;21157;-60
2021/09/07 07:42:42;;;;;;;9.23;2.45;;;;;;;19.11;40.63;102354.97;1724986;82;21111;-59
2021/09/07 07:45:26;;;;;;;12.35;3.17;;;;;;;19.10;40.80;102351.34;1725689;82;21048;-56
2021/09/07 07:47:53;;;;;;;7.08;2.30;;;;;;;19.06;41.22;102349.73;1721673;82;21695;-56
2021/09/07 07:53:23;;;;;;;12.05;2.60;;;;;;;19.03;41.98;102341.72;1735353;81;22514;-57
2021/09/07 07:55:50;;;;;;;8.68;2.90;;;;;;;19.03;42.69;102344.44;1732873;82;21142;-56
2021/09/07 07:58:17;;;;;;;23.30;2.80;;;;;;;19.10;43.27;102356.78;1734793;82;21068;-60
2021/09/07 08:01:00;;;;;;;8.78;2.35;;;;;;;19.09;43.95;102349.58;1734528;82;21111;-60
2021/09/07 08:03:35;;;;;;;17.57;2.90;;;;;;;19.02;43.83;102350.83;1730069;82;21547;-59
2021/09/07 08:06:02;;;;;;;21.27;3.30;;;;;;;18.89;43.86;102351.33;1729429;82;21058;-56
2021/09/07 08:08:30;;;;;;;18.67;3.17;;;;;;;18.93;44.36;102354.81;1728495;80;21057;-56
2021/09/07 08:10:57;;;;;;;18.32;3.25;;;;;;;19.02;43.74;102361.70;1718620;82;21128;-56
2021/09/07 08:13:24;;;;;;;12.55;2.60;;;;;;;19.02;43.38;102353.08;1727831;82;21057;-56
2021/09/07 08:15:51;;;;;;;12.35;2.27;;;;;;;19.08;43.45;102357.33;1732606;82;21521;-57
2021/09/07 08:18:28;;;;;;;3.08;1.70;;;;;;;19.18;42.39;102360.05;1719656;81;21118;-56
2021/09/07 08:20:57;;;;;;;10.18;2.12;;;;;;;19.10;41.13;102366.30;1730362;82;21073;-55
2021/09/07 08:23:27;;;;;;;8.13;2.20;;;;;;;18.94;41.85;102354.34;1729637;82;21120;-56
2021/09/07 08:25:54;;;;;;;12.30;2.42;;;;;;;18.89;42.20;102364.05;1725887;82;21056;-56
2021/09/07 08:28:21;;;;;;;12.80;2.35;;;;;;;18.81;42.09;102357.59;1732292;82;21037;-55
2021/09/07 08:30:48;;;;;;;6.47;2.08;;;;;;;18.76;42.27;102353.72;1730987;81;21116;-60
2021/09/07 08:33:15;;;;;;;13.18;2.30;;;;;;;18.77;41.78;102345.11;1740116;80;21088;-59
2021/09/07 08:35:43;;;;;;;14.10;2.17;;;;;;;18.74;41.67;102358.34;1713148;82;21544;-59
2021/09/07 08:38:10;;;;;;;7.37;1.87;;;;;;;18.73;41.06;102346.20;1670667;84;21084;-59
2021/09/07 08:40:37;;;;;;;4.50;1.67;;;;;;;18.73;40.88;102358.42;1712259;83;21880;-57
2021/09/07 08:43:06;;;;;;;8.33;2.02;;;;;;;18.70;40.91;102356.72;1710710;82;21066;-57
2021/09/07 08:45:54;;;;;;;8.25;1.87;;;;;;;18.71;41.00;102351.69;1709152;83;21059;-59
2021/09/07 08:48:36;;;;;;;11.10;2.00;;;;;;;18.71;40.55;102351.69;1660319;84;21139;-58
2021/09/07 08:51:04;;;;;;;4.30;1.75;;;;;;;18.75;40.07;102348.37;1709586;83;21035;-59
2021/09/07 08:59:13;;;;;;;7.80;2.08;;;;;;;18.96;38.90;102344.28;1714287;83;21240;-56
2021/09/07 09:01:42;;;;;;;5.83;1.92;;;;;;;19.08;39.54;102358.69;1712371;82;21048;-60
2021/09/07 09:04:27;;;;;;;2.45;1.57;;;;;;;19.15;39.59;102357.48;1712054;83;21043;-58
2021/09/07 09:06:55;;;;;;;12.25;7.37;;;;;;;19.15;39.22;102357.48;1704269;82;20968;-60
2021/09/07 09:09:23;;;;;;;7.40;1.90;;;;;;;19.13;39.61;102352.59;1711225;82;21394;-57
2021/09/07 09:11:55;;;;;;;4.17;1.62;;;;;;;19.23;39.52;102352.16;1675562;83;21107;-60
2021/09/07 09:14:40;;;;;;;3.85;1.72;;;;;;;19.32;39.62;102343.55;1707550;83;21063;-61
2021/09/07 09:17:23;;;;;;;9.35;1.90;;;;;;;19.40;39.83;102345.45;1703709;83;21034;-58
2021/09/07 09:20:07;;;;;;;3.08;2.08;;;;;;;19.44;40.17;102346.17;1705762;82;21817;-58
2021/09/07 09:22:48;;;;;;;6.05;1.85;;;;;;;19.46;39.88;102345.16;1704321;82;21028;-58
2021/09/07 09:25:25;;;;;;;15.75;8.43;;;;;;;19.50;39.19;102339.56;1708864;83;21110;-56
2021/09/07 09:28:00;;;;;;;6.75;2.50;;;;;;;19.54;39.15;102339.36;1700801;83;20960;-56
2021/09/07 09:30:41;;;;;;;9.15;2.20;;;;;;;19.65;38.92;102344.28;1680837;84;21041;-56
2021/09/07 09:33:19;;;;;;;7.08;2.20;;;;;;;19.62;39.41;102334.91;1682320;83;21143;-56
2021/09/07 09:35:57;;;;;;;5.80;1.85;;;;;;;19.62;39.81;102347.16;1691019;82;21102;-56
2021/09/07 09:38:33;;;;;;;5.17;2.02;;;;;;;19.53;39.91;102347.58;1693323;83;21654;-57
2021/09/07 09:41:02;;;;;;;3.30;1.90;;;;;;;19.39;40.72;102340.97;1691480;83;21507;-57
2021/09/07 09:43:33;;;;;;;6.92;2.12;;;;;;;19.28;41.27;102338.76;1687484;83;21105;-57
2021/09/07 09:48:33;;;;;;;4.12;2.00;;;;;;;19.16;40.99;102348.37;1728459;81;21569;-57
2021/09/07 09:51:00;;;;;;;6.75;1.90;;;;;;;19.11;40.73;102343.59;1728417;82;21136;-57
2021/09/07 09:56:03;;;;;;;6.97;1.80;;;;;;;19.04;38.77;102351.64;1662065;85;21112;-57
2021/09/07 10:01:05;;;;;;;;;;;;;;;18.81;39.63;102330.42;1740219;80;21075;-56
2021/09/07 10:03:33;;;;;;;2.92;1.60;;;;;;;18.75;39.61;102341.58;1732459;81;20214;-56
2021/09/07 10:08:31;;;;;;;2.95;1.60;;;;;;;18.66;40.41;102341.50;1680414;84;21083;-57
2021/09/07 10:11:04;;;;;;;3.75;1.77;;;;;;;18.66;40.79;102341.97;1680955;84;21060;-55
2021/09/07 10:13:31;;;;;;;5.97;1.90;;;;;;;18.66;40.53;102328.38;1681295;83;21612;-56
2021/09/07 10:16:18;;;;;;;4.47;1.98;;;;;;;18.72;41.20;102330.84;1655504;85;21601;-54
2021/09/07 10:26:45;;;;;;;4.70;1.60;;;;;;;18.74;40.30;102324.87;1681633;84;21454;-58
2021/09/07 10:29:23;;;;;;;14.05;7.30;;;;;;;18.65;40.87;102328.87;1670463;83;21020;-56
2021/09/07 10:34:20;;;;;;;7.53;1.47;;;;;;;18.77;39.11;102330.16;1677306;84;21901;-56
2021/09/07 10:37:02;;;;;;;1.40;1.20;;;;;;;18.75;38.51;102332.06;1672854;84;21616;-56
2021/09/07 10:43:50;;;;;;;4.37;1.32;;;;;;;18.84;38.81;102324.84;1716737;79;71896;-60
2021/09/07 10:46:57;;;;;;;3.33;1.70;;;;;;;18.84;40.19;102336.21;1684792;83;20976;-58
2021/09/07 10:49:46;;;;;;;2.75;1.27;;;;;;;18.72;39.78;102327.64;1692301;84;21133;-60
2021/09/07 10:52:27;;;;;;;1.67;1.20;;;;;;;18.65;39.31;102330.69;1712684;83;21492;-60
2021/09/07 10:55:09;;;;;;;5.12;1.32;;;;;;;18.64;38.03;102322.14;1713178;83;21075;-58
2021/09/07 10:57:43;;;;;;;2.12;1.30;;;;;;;18.63;38.36;102321.73;1713023;83;21004;-61
2021/09/07 11:00:22;;;;;;;3.52;1.27;;;;;;;18.67;38.48;102324.72;1693191;84;21033;-58
2021/09/07 11:02:55;;;;;;;6.47;1.90;;;;;;;18.60;39.03;102320.92;1704587;83;21115;-58
2021/09/07 11:05:32;;;;;;;5.10;1.55;;;;;;;18.52;39.72;102320.39;1689794;84;21217;-60
2021/09/07 11:08:12;;;;;;;4.95;1.15;;;;;;;18.39;40.33;102320.50;1688476;84;21371;-58
2021/09/07 11:10:53;;;;;;;2.47;1.07;;;;;;;18.35;38.33;102318.88;1690414;84;21068;-60
2021/09/07 11:13:26;;;;;;;8.25;1.50;;;;;;;18.32;36.27;102313.98;1690346;84;21052;-58
2021/09/07 11:15:57;;;;;;;7.78;1.57;;;;;;;18.28;37.59;102313.71;1690008;84;20997;-59
2021/09/07 11:18:26;;;;;;;6.55;1.30;;;;;;;18.24;39.17;102313.44;1713164;83;22160;-58
2021/09/07 11:20:55;;;;;;;6.58;1.60;;;;;;;18.20;39.44;102310.42;1694765;83;21029;-58
2021/09/07 11:23:27;;;;;;;5.78;1.00;;;;;;;18.22;39.08;102315.31;1712318;83;21293;-59
2021/09/07 11:26:11;;;;;;;2.25;1.17;;;;;;;18.28;37.00;102303.31;1715225;83;21032;-59
2021/09/07 11:28:46;;;;;;;4.70;1.50;;;;;;;18.35;37.39;102306.19;1708011;82;20996;-59
2021/09/07 11:31:13;;;;;;;3.12;1.07;;;;;;;18.41;37.37;102299.59;1713973;83;21097;-60
2021/09/07 11:33:42;;;;;;;2.75;1.27;;;;;;;18.44;37.93;102311.67;1714249;83;21067;-59
2021/09/07 11:36:11;;;;;;;8.20;1.40;;;;;;;18.47;37.90;102292.55;1714604;83;21040;-58
2021/09/07 11:38:54;;;;;;;1.77;1.05;;;;;;;18.50;37.27;102295.13;1713315;83;21099;-60
2021/09/07 11:41:31;;;;;;;4.40;1.10;;;;;;;18.54;37.36;102295.40;1682721;83;21040;-58
2021/09/07 11:43:58;;;;;;;2.65;1.00;;;;;;;18.56;37.92;102300.28;1710570;82;21137;-60
2021/09/07 11:46:37;;;;;;;3.40;1.30;;;;;;;18.57;36.29;102296.61;1709178;83;21076;-59
2021/09/07 11:49:08;;;;;;;2.85;1.47;;;;;;;18.52;35.94;102294.58;1710836;83;21632;-57
2021/09/07 11:51:42;;;;;;;3.47;1.30;;;;;;;18.45;36.96;102291.70;1709800;82;21033;-57
2021/09/07 11:54:11;;;;;;;3.92;1.05;;;;;;;18.46;36.14;102286.72;1712223;82;21025;-61
2021/09/07 11:56:40;;;;;;;3.65;1.20;;;;;;;18.51;36.76;102286.03;1712325;81;21149;-62
2021/09/07 11:59:13;;;;;;;3.90;1.30;;;;;;;18.54;36.23;102273.67;1706918;83;21096;-59
2021/09/07 12:01:47;;;;;;;2.00;1.10;;;;;;;18.55;36.28;102274.07;1708724;81;21095;-60
2021/09/07 12:04:15;;;;;;;2.80;1.22;;;;;;;18.57;37.24;102265.38;1711062;81;21080;-57
2021/09/07 12:06:52;;;;;;;14.13;10.00;;;;;;;18.61;37.09;102266.13;1709471;82;21013;-58
2021/09/07 12:09:28;;;;;;;8.63;3.10;;;;;;;18.56;36.53;102271.77;1675974;85;21658;-60
2021/09/07 12:12:09;;;;;;;3.25;1.15;;;;;;;18.56;36.57;102263.61;1705665;82;21101;-62
2021/09/07 12:14:47;;;;;;;5.05;1.52;;;;;;;18.61;36.92;102260.20;1705959;82;21551;-63
2021/09/07 12:17:18;;;;;;;7.72;2.10;;;;;;;18.72;36.88;102260.22;1704402;82;21158;-61
2021/09/07 12:19:50;;;;;;;4.85;1.52;;;;;;;18.75;37.37;102257.35;1706109;82;21012;-60
2021/09/07 12:22:31;;;;;;;5.22;1.75;;;;;;;18.78;37.84;102257.20;1704833;83;22362;-62
2021/09/07 12:25:12;;;;;;;3.77;1.10;;;;;;;18.79;37.50;102253.53;1702896;83;21053;-61
2021/09/07 12:27:51;;;;;;;6.30;1.50;;;;;;;18.84;36.30;102254.69;1705638;82;21120;-60
2021/09/07 12:30:36;;;;;;;3.72;1.10;;;;;;;18.78;36.24;102246.34;1710930;82;21107;-62
2021/09/07 12:33:01;;;;;;;7.33;1.20;;;;;;;18.73;36.13;102244.31;1686003;83;21046;-60
2021/09/07 12:35:41;;;;;;;3.47;1.20;;;;;;;18.72;36.49;102238.48;1700954;82;21116;-61
2021/09/07 12:38:16;;;;;;;3.42;1.40;;;;;;;18.71;37.59;102231.28;1705958;82;21706;-61
2021/09/07 12:40:46;;;;;;;3.50;1.20;;;;;;;18.72;37.55;102239.84;1682881;83;21084;-61
2021/09/07 12:43:24;;;;;;;6.28;1.27;;;;;;;18.71;37.16;102234.87;1703629;82;21057;-59
2021/09/07 12:45:53;;;;;;;5.20;1.67;;;;;;;18.69;37.49;102235.41;1700544;83;21038;-58
2021/09/07 12:48:21;;;;;;;4.03;1.30;;;;;;;18.74;36.81;102222.98;1708119;82;21092;-57
2021/09/07 12:50:49;;;;;;;2.80;1.30;;;;;;;18.75;36.54;102220.67;1707713;82;21124;-62
2021/09/07 12:53:22;;;;;;;3.50;1.32;;;;;;;18.80;36.52;102226.77;1706393;82;21088;-61
2021/09/07 12:55:46;;;;;;;2.60;1.32;;;;;;;18.80;36.67;102215.03;1698495;82;21525;-61
2021/09/07 12:58:13;;;;;;;3.45;1.27;;;;;;;18.74;37.17;102229.78;1704478;82;21027;-62
2021/09/07 13:00:40;;;;;;;1.85;1.20;;;;;;;18.72;37.93;102218.11;1710429;82;21592;-61
2021/09/07 13:03:12;;;;;;;7.47;1.35;;;;;;;18.78;37.87;102213.73;1707573;82;21104;-62
2021/09/07 13:05:36;;;;;;;5.45;1.50;;;;;;;18.81;37.70;102209.52;1711536;82;21518;-60
2021/09/07 13:08:05;;;;;;;5.05;1.50;;;;;;;18.81;37.17;102210.88;1708526;82;21020;-63
2021/09/07 13:10:34;;;;;;;3.17;1.20;;;;;;;18.82;37.08;102211.77;1706518;83;21513;-58
2021/09/07 13:13:29;;;;;;;3.12;1.55;;;;;;;18.78;36.60;102204.22;1710970;82;21093;-59
2021/09/07 13:15:58;;;;;;;4.10;1.32;;;;;;;18.74;36.82;102194.46;1712391;82;21137;-59
2021/09/07 13:18:29;;;;;;;3.00;1.47;;;;;;;18.76;36.68;102203.42;1705233;82;21564;-63
2021/09/07 13:20:58;;;;;;;3.37;1.40;;;;;;;18.74;36.09;102199.89;1709923;83;21245;-63
2021/09/07 13:23:26;;;;;;;6.20;1.60;;;;;;;18.74;35.89;102206.69;1712424;83;21092;-61
2021/09/07 13:25:52;;;;;;;8.23;6.05;;;;;;;18.75;36.62;102197.09;1706612;82;21488;-59
2021/09/07 13:28:20;;;;;;;3.83;1.60;;;;;;;18.82;37.41;102198.18;1710553;82;21131;-58
2021/09/07 13:30:47;;;;;;;5.40;1.40;;;;;;;18.90;37.42;102191.89;1708734;82;21115;-62
2021/09/07 13:33:17;;;;;;;6.80;1.22;;;;;;;18.98;37.38;102196.51;1710282;83;21014;-60
2021/09/07 13:35:45;;;;;;;5.95;1.20;;;;;;;19.08;36.54;102192.87;1709996;83;21489;-61
2021/09/07 13:38:11;;;;;;;5.20;1.40;;;;;;;19.08;36.71;102191.52;1709183;82;21696;-58
2021/09/07 13:40:40;;;;;;;5.80;1.25;;;;;;;19.08;37.08;102192.01;1710092;82;21033;-59
2021/09/07 13:43:08;;;;;;;4.53;1.37;;;;;;;19.11;36.44;102190.00;1703866;82;21560;-62
2021/09/07 13:45:37;;;;;;;4.75;1.42;;;;;;;19.14;36.20;102192.60;1693667;83;21115;-61
2021/09/07 13:48:06;;;;;;;3.47;1.40;;;;;;;19.11;36.18;102193.22;1692172;84;22262;-58
2021/09/07 13:50:34;;;;;;;6.10;1.45;;;;;;;19.12;35.73;102194.98;1695777;83;21136;-61
2021/09/07 13:53:01;;;;;;;7.35;1.60;;;;;;;19.13;35.87;102195.38;1692280;83;21734;-58
2021/09/07 13:55:28;;;;;;;6.22;4.10;;;;;;;19.14;36.43;102188.98;1669975;85;21581;-61
2021/09/07 13:57:57;;;;;;;7.28;1.40;;;;;;;19.15;36.82;102180.77;1651033;85;21111;-59
2021/09/07 14:00:24;;;;;;;4.10;1.40;;;;;;;19.16;36.74;102179.81;1693288;84;21099;-58
2021/09/07 14:02:51;;;;;;;4.83;1.42;;;;;;;19.15;36.00;102183.48;1689171;84;21560;-59
2021/09/07 14:05:20;;;;;;;3.83;1.50;;;;;;;19.17;35.72;102175.23;1688508;84;21075;-59
2021/09/07 14:07:47;;;;;;;2.52;1.70;;;;;;;19.21;35.44;102170.55;1698068;84;21102;-59
2021/09/07 14:10:14;;;;;;;4.90;1.60;;;;;;;19.25;34.87;102177.59;1689506;84;21118;-59
2021/09/07 14:12:42;;;;;;;3.58;1.40;;;;;;;19.26;34.57;102171.19;1712631;83;21094;-59
2021/09/07 14:15:10;;;;;;;4.92;1.47;;;;;;;19.25;34.30;102178.48;1654889;86;21072;-58
2021/09/07 14:17:37;;;;;;;1.92;1.32;;;;;;;19.25;34.14;102178.95;1658665;85;21573;-59
2021/09/07 14:20:06;;;;;;;2.62;1.60;;;;;;;19.24;33.99;102173.11;1666015;85;21088;-60
2021/09/07 14:22:33;;;;;;;5.17;1.57;;;;;;;19.17;34.60;102181.57;1707635;83;21032;-57
2021/09/07 14:25:01;;;;;;;3.15;1.30;;;;;;;19.13;35.18;102177.71;1709600;82;21038;-58
2021/09/07 14:27:29;;;;;;;5.00;1.57;;;;;;;19.06;34.96;102170.33;1710417;81;22250;-59
2021/09/07 14:29:58;;;;;;;30.02;22.52;;;;;;;19.04;34.63;102168.16;1705985;81;21014;-59
2021/09/07 14:32:25;;;;;;;10.50;4.87;;;;;;;19.04;35.41;102165.44;1703529;81;21023;-60
2021/09/07 14:34:54;;;;;;;13.45;9.93;;;;;;;19.09;35.67;102168.81;1706718;83;21019;-58
2021/09/07 14:37:24;;;;;;;2.95;1.40;;;;;;;19.17;35.72;102157.11;1711966;83;21068;-59
2021/09/07 14:39:51;;;;;;;9.90;1.75;;;;;;;19.23;35.73;102150.95;1704685;83;21508;-60